Elk Grove Village, Illinois
Current Conditions -  °F | °C
As of 4:51 PM on Monday 24 Nov 2014 (Local Time) from KORD Reporting Station
Light Snow Light Snow  
Wind Chill: 15°   Ceiling: 1500
Heat Index: 28°   Visibility: 8mi
Dew Point: 23°   Wind: 21mph
Humidity: 81%   Direction: 250°WSW
Pressure: 29.58"   Gusts: 40mph
Location:  42°N, 88.01°W
Report Text: KORD 242251Z 25018G35KT 8SM -SN OVC015 M02/M05 A2958 RMK AO2 PK WND 25035/2244 SLP022 P0000 T10221050
Loading
Personal Weather Stations






























Interactive Weather Map New forecast layout! Learn more

10-Day Weather Forecast

Advertisements
Track Severe Weather on mobile